This is the latest recevied weather packets stored in our database for station/object KS5S. If no packets are shown the sender has not sent any weather packets the latest 10 day(s).
| Time | Temp. | Humidity | Pressure | Rain* | Wind** | Luminosity | Snow |
|---|---|---|---|---|---|---|---|
| 1777697796 | 12.22° C | 91% | 1017.2 hPa | 0 mm | - | 0 W/m² | - |
| 1777697494 | 12.22° C | 90% | 1017 hPa | 0 mm | - | 0 W/m² | - |
| 1777697190 | 12.78° C | 89% | 1017.1 hPa | 0 mm | - | 0 W/m² | - |
| 1777696886 | 12.78° C | 88% | 1017.2 hPa | 0 mm | - | 0 W/m² | - |
| 1777696584 | 12.78° C | 86% | 1017.2 hPa | 0 mm | - | 0 W/m² | - |
| 1777696281 | 12.78° C | 85% | 1017.1 hPa | 0 mm | - | 0 W/m² | - |
| 1777695975 | 12.78° C | 87% | 1017.4 hPa | 0 mm | - | 0 W/m² | - |
| 1777695673 | 12.22° C | 90% | 1017.1 hPa | 0 mm | - | 0 W/m² | - |
| 1777695370 | 12.22° C | 90% | 1017.1 hPa | 0 mm | - | 0 W/m² | - |
| 1777695068 | 12.22° C | 90% | 1017 hPa | 0 mm | - | 0 W/m² | - |
| 1777694764 | 12.22° C | 90% | 1017.2 hPa | 0 mm | - | 0 W/m² | - |
| 1777694462 | 12.22° C | 89% | 1016.9 hPa | 0 mm | - | 0 W/m² | - |
| 1777694157 | 12.78° C | 88% | 1017 hPa | 0 mm | - | 0 W/m² | - |
| 1777693855 | 13.33° C | 85% | 1016.9 hPa | 0 mm | - | 0 W/m² | - |
| 1777693552 | 13.33° C | 84% | 1017 hPa | 0 mm | - | 0 W/m² | - |
| 1777693250 | 12.78° C | 88% | 1017 hPa | 0 mm | - | 0 W/m² | - |
| 1777692949 | 12.78° C | 87% | 1016.9 hPa | 0 mm | - | 0 W/m² | - |
| 1777692646 | 12.78° C | 87% | 1016.6 hPa | 0 mm | - | 0 W/m² | - |
| 1777692341 | 13.33° C | 85% | 1016.8 hPa | 0 mm | - | 0 W/m² | - |
| 1777692038 | 13.89° C | 83% | 1016.8 hPa | 0 mm | - | 0 W/m² | - |
| 1777691736 | 13.33° C | 82% | 1016.7 hPa | 0 mm | - | 0 W/m² | - |
| 1777691434 | 13.89° C | 82% | 1016.8 hPa | 0 mm | - | 0 W/m² | - |
| 1777691132 | 13.89° C | 83% | 1016.8 hPa | 0 mm | - | 0 W/m² | - |
| 1777690830 | 13.89° C | 84% | 1016.8 hPa | 0 mm | - | 0 W/m² | - |
| 1777690527 | 13.89° C | 82% | 1016.6 hPa | 0 mm | - | 0 W/m² | - |
* Rain latest hour (hover to see other rain measurements)
** Current wind speed in m/s (hover to see current wind gust speed)